sensor_id;sensor_type;location;lat;lon;timestamp;P1;durP1;ratioP1;P2;durP2;ratioP2
21356;SDS011;10836;53.068;18.234;2023-03-23T00:01:48;33.72;;;18.42;;
21356;SDS011;10836;53.068;18.234;2023-03-23T00:04:15;29.17;;;18.60;;
21356;SDS011;10836;53.068;18.234;2023-03-23T00:06:42;29.90;;;19.33;;
21356;SDS011;10836;53.068;18.234;2023-03-23T00:09:11;33.03;;;19.07;;
21356;SDS011;10836;53.068;18.234;2023-03-23T00:11:40;34.23;;;18.70;;
21356;SDS011;10836;53.068;18.234;2023-03-23T00:14:08;34.63;;;18.37;;
21356;SDS011;10836;53.068;18.234;2023-03-23T00:16:39;31.90;;;18.17;;
21356;SDS011;10836;53.068;18.234;2023-03-23T00:19:07;33.17;;;17.83;;
21356;SDS011;10836;53.068;18.234;2023-03-23T00:21:41;31.37;;;18.57;;
21356;SDS011;10836;53.068;18.234;2023-03-23T00:24:12;32.30;;;17.53;;
21356;SDS011;10836;53.068;18.234;2023-03-23T00:26:43;36.90;;;18.30;;
21356;SDS011;10836;53.068;18.234;2023-03-23T00:29:18;33.47;;;18.30;;
21356;SDS011;10836;53.068;18.234;2023-03-23T00:31:50;30.07;;;17.67;;
21356;SDS011;10836;53.068;18.234;2023-03-23T00:34:18;31.10;;;17.83;;
21356;SDS011;10836;53.068;18.234;2023-03-23T00:36:51;28.53;;;18.13;;
21356;SDS011;10836;53.068;18.234;2023-03-23T00:39:19;34.43;;;16.90;;
21356;SDS011;10836;53.068;18.234;2023-03-23T00:41:47;31.57;;;17.70;;
21356;SDS011;10836;53.068;18.234;2023-03-23T00:44:13;31.77;;;18.50;;
21356;SDS011;10836;53.068;18.234;2023-03-23T00:46:46;36.57;;;18.57;;
21356;SDS011;10836;53.068;18.234;2023-03-23T00:49:14;32.77;;;18.83;;
21356;SDS011;10836;53.068;18.234;2023-03-23T00:51:42;31.30;;;18.27;;
21356;SDS011;10836;53.068;18.234;2023-03-23T00:54:09;34.13;;;18.63;;
21356;SDS011;10836;53.068;18.234;2023-03-23T00:56:36;32.17;;;18.23;;
21356;SDS011;10836;53.068;18.234;2023-03-23T00:59:04;32.50;;;18.10;;
21356;SDS011;10836;53.068;18.234;2023-03-23T01:01:31;31.33;;;17.77;;
21356;SDS011;10836;53.068;18.234;2023-03-23T01:03:58;29.37;;;17.93;;
21356;SDS011;10836;53.068;18.234;2023-03-23T01:06:30;32.70;;;18.03;;
21356;SDS011;10836;53.068;18.234;2023-03-23T01:09:02;31.00;;;17.60;;
21356;SDS011;10836;53.068;18.234;2023-03-23T01:11:29;31.63;;;17.63;;
21356;SDS011;10836;53.068;18.234;2023-03-23T01:13:55;31.47;;;16.77;;
21356;SDS011;10836;53.068;18.234;2023-03-23T01:16:21;29.57;;;16.83;;
21356;SDS011;10836;53.068;18.234;2023-03-23T01:18:47;29.83;;;17.10;;
21356;SDS011;10836;53.068;18.234;2023-03-23T01:21:14;28.50;;;16.77;;
21356;SDS011;10836;53.068;18.234;2023-03-23T01:23:41;30.57;;;16.07;;
21356;SDS011;10836;53.068;18.234;2023-03-23T01:26:18;31.03;;;16.40;;
21356;SDS011;10836;53.068;18.234;2023-03-23T01:28:46;24.43;;;15.27;;
21356;SDS011;10836;53.068;18.234;2023-03-23T01:31:14;26.73;;;15.63;;
21356;SDS011;10836;53.068;18.234;2023-03-23T01:33:42;29.03;;;15.20;;
21356;SDS011;10836;53.068;18.234;2023-03-23T01:36:13;27.60;;;15.57;;
21356;SDS011;10836;53.068;18.234;2023-03-23T01:38:42;26.17;;;15.97;;
21356;SDS011;10836;53.068;18.234;2023-03-23T01:41:10;32.53;;;17.00;;
21356;SDS011;10836;53.068;18.234;2023-03-23T01:43:54;33.10;;;16.17;;
21356;SDS011;10836;53.068;18.234;2023-03-23T01:46:22;24.97;;;15.43;;
21356;SDS011;10836;53.068;18.234;2023-03-23T01:48:48;34.50;;;16.37;;
21356;SDS011;10836;53.068;18.234;2023-03-23T01:51:15;27.93;;;15.57;;
21356;SDS011;10836;53.068;18.234;2023-03-23T01:53:51;25.93;;;15.57;;
21356;SDS011;10836;53.068;18.234;2023-03-23T01:56:24;26.63;;;16.50;;
21356;SDS011;10836;53.068;18.234;2023-03-23T01:58:56;29.90;;;15.93;;
21356;SDS011;10836;53.068;18.234;2023-03-23T02:01:23;29.43;;;17.10;;
21356;SDS011;10836;53.068;18.234;2023-03-23T02:03:52;31.87;;;15.73;;
21356;SDS011;10836;53.068;18.234;2023-03-23T02:06:19;28.83;;;16.67;;
21356;SDS011;10836;53.068;18.234;2023-03-23T02:09:06;33.00;;;17.53;;
21356;SDS011;10836;53.068;18.234;2023-03-23T02:11:33;31.50;;;17.93;;
21356;SDS011;10836;53.068;18.234;2023-03-23T02:14:00;30.20;;;17.10;;
21356;SDS011;10836;53.068;18.234;2023-03-23T02:16:33;29.70;;;16.60;;
21356;SDS011;10836;53.068;18.234;2023-03-23T02:35:52;29.63;;;17.37;;
21356;SDS011;10836;53.068;18.234;2023-03-23T02:38:21;29.33;;;16.17;;
21356;SDS011;10836;53.068;18.234;2023-03-23T02:40:53;27.97;;;16.83;;
21356;SDS011;10836;53.068;18.234;2023-03-23T02:43:22;30.07;;;18.00;;
21356;SDS011;10836;53.068;18.234;2023-03-23T02:45:51;30.40;;;17.67;;
21356;SDS011;10836;53.068;18.234;2023-03-23T02:48:20;31.93;;;16.60;;
21356;SDS011;10836;53.068;18.234;2023-03-23T02:50:51;31.80;;;17.73;;
21356;SDS011;10836;53.068;18.234;2023-03-23T02:53:19;31.57;;;17.03;;
21356;SDS011;10836;53.068;18.234;2023-03-23T02:55:50;25.93;;;15.67;;
21356;SDS011;10836;53.068;18.234;2023-03-23T02:58:22;25.47;;;15.53;;
21356;SDS011;10836;53.068;18.234;2023-03-23T03:00:50;28.00;;;15.60;;
21356;SDS011;10836;53.068;18.234;2023-03-23T03:03:19;26.87;;;15.27;;
21356;SDS011;10836;53.068;18.234;2023-03-23T03:05:51;31.30;;;15.90;;
21356;SDS011;10836;53.068;18.234;2023-03-23T03:11:15;23.97;;;14.20;;
21356;SDS011;10836;53.068;18.234;2023-03-23T03:19:09;30.77;;;13.90;;
21356;SDS011;10836;53.068;18.234;2023-03-23T03:21:40;23.47;;;13.40;;
21356;SDS011;10836;53.068;18.234;2023-03-23T03:24:10;24.37;;;14.03;;
21356;SDS011;10836;53.068;18.234;2023-03-23T03:26:42;31.47;;;14.40;;
21356;SDS011;10836;53.068;18.234;2023-03-23T03:29:46;24.13;;;13.80;;
21356;SDS011;10836;53.068;18.234;2023-03-23T03:32:19;27.10;;;14.17;;
21356;SDS011;10836;53.068;18.234;2023-03-23T03:34:51;27.10;;;14.60;;
21356;SDS011;10836;53.068;18.234;2023-03-23T03:37:18;27.47;;;14.70;;
21356;SDS011;10836;53.068;18.234;2023-03-23T03:39:48;26.40;;;14.33;;
21356;SDS011;10836;53.068;18.234;2023-03-23T03:42:14;32.03;;;15.07;;
21356;SDS011;10836;53.068;18.234;2023-03-23T03:44:40;28.60;;;14.93;;
21356;SDS011;10836;53.068;18.234;2023-03-23T03:47:06;28.70;;;14.23;;
21356;SDS011;10836;53.068;18.234;2023-03-23T03:49:32;23.77;;;13.27;;
21356;SDS011;10836;53.068;18.234;2023-03-23T03:51:58;28.63;;;14.30;;
21356;SDS011;10836;53.068;18.234;2023-03-23T03:54:33;24.23;;;14.43;;
21356;SDS011;10836;53.068;18.234;2023-03-23T03:56:59;25.30;;;14.07;;
21356;SDS011;10836;53.068;18.234;2023-03-23T03:59:47;27.70;;;14.40;;
21356;SDS011;10836;53.068;18.234;2023-03-23T04:02:33;26.73;;;15.90;;
21356;SDS011;10836;53.068;18.234;2023-03-23T04:04:59;26.27;;;13.60;;
21356;SDS011;10836;53.068;18.234;2023-03-23T04:07:29;27.23;;;14.13;;
21356;SDS011;10836;53.068;18.234;2023-03-23T04:09:56;23.90;;;14.13;;
21356;SDS011;10836;53.068;18.234;2023-03-23T04:12:22;25.70;;;14.87;;
21356;SDS011;10836;53.068;18.234;2023-03-23T04:14:57;26.50;;;14.53;;
21356;SDS011;10836;53.068;18.234;2023-03-23T04:17:31;25.80;;;14.90;;
21356;SDS011;10836;53.068;18.234;2023-03-23T04:19:58;26.53;;;14.90;;
21356;SDS011;10836;53.068;18.234;2023-03-23T04:22:26;27.17;;;15.30;;
21356;SDS011;10836;53.068;18.234;2023-03-23T04:24:58;22.53;;;13.77;;
21356;SDS011;10836;53.068;18.234;2023-03-23T04:27:27;27.47;;;16.47;;
21356;SDS011;10836;53.068;18.234;2023-03-23T04:29:55;27.87;;;15.13;;
21356;SDS011;10836;53.068;18.234;2023-03-23T04:32:48;30.63;;;14.57;;
21356;SDS011;10836;53.068;18.234;2023-03-23T04:35:23;29.47;;;15.20;;
21356;SDS011;10836;53.068;18.234;2023-03-23T04:38:02;30.20;;;15.23;;
21356;SDS011;10836;53.068;18.234;2023-03-23T04:40:28;27.70;;;14.23;;
21356;SDS011;10836;53.068;18.234;2023-03-23T04:43:07;25.70;;;15.30;;
21356;SDS011;10836;53.068;18.234;2023-03-23T04:45:54;28.37;;;14.53;;
21356;SDS011;10836;53.068;18.234;2023-03-23T04:48:26;26.53;;;14.73;;
21356;SDS011;10836;53.068;18.234;2023-03-23T04:51:18;25.67;;;15.33;;
21356;SDS011;10836;53.068;18.234;2023-03-23T04:53:47;28.25;;;16.08;;
21356;SDS011;10836;53.068;18.234;2023-03-23T04:56:13;25.13;;;15.27;;
21356;SDS011;10836;53.068;18.234;2023-03-23T04:58:43;25.13;;;14.47;;
21356;SDS011;10836;53.068;18.234;2023-03-23T05:01:09;22.30;;;13.93;;
21356;SDS011;10836;53.068;18.234;2023-03-23T05:03:44;25.27;;;13.17;;
21356;SDS011;10836;53.068;18.234;2023-03-23T05:06:10;23.27;;;13.80;;
21356;SDS011;10836;53.068;18.234;2023-03-23T05:08:37;26.97;;;14.23;;
21356;SDS011;10836;53.068;18.234;2023-03-23T05:11:05;29.63;;;14.57;;
21356;SDS011;10836;53.068;18.234;2023-03-23T05:13:36;26.93;;;14.17;;
21356;SDS011;10836;53.068;18.234;2023-03-23T05:16:03;26.00;;;14.40;;
21356;SDS011;10836;53.068;18.234;2023-03-23T05:18:30;27.13;;;14.37;;
21356;SDS011;10836;53.068;18.234;2023-03-23T05:21:01;27.47;;;15.43;;
21356;SDS011;10836;53.068;18.234;2023-03-23T05:23:30;25.93;;;15.13;;
21356;SDS011;10836;53.068;18.234;2023-03-23T05:26:08;34.90;;;14.53;;
21356;SDS011;10836;53.068;18.234;2023-03-23T05:28:33;30.33;;;14.13;;
21356;SDS011;10836;53.068;18.234;2023-03-23T05:31:08;24.40;;;13.37;;
21356;SDS011;10836;53.068;18.234;2023-03-23T05:33:33;29.80;;;15.40;;
21356;SDS011;10836;53.068;18.234;2023-03-23T05:36:05;27.77;;;14.67;;
21356;SDS011;10836;53.068;18.234;2023-03-23T05:38:52;26.33;;;14.47;;
21356;SDS011;10836;53.068;18.234;2023-03-23T05:41:18;23.97;;;13.60;;
21356;SDS011;10836;53.068;18.234;2023-03-23T05:43:45;24.20;;;14.23;;
21356;SDS011;10836;53.068;18.234;2023-03-23T05:46:22;26.10;;;14.43;;
21356;SDS011;10836;53.068;18.234;2023-03-23T05:48:49;25.27;;;14.20;;
21356;SDS011;10836;53.068;18.234;2023-03-23T05:51:19;28.83;;;15.00;;
21356;SDS011;10836;53.068;18.234;2023-03-23T05:53:46;24.07;;;13.93;;
21356;SDS011;10836;53.068;18.234;2023-03-23T05:56:15;27.07;;;13.63;;
21356;SDS011;10836;53.068;18.234;2023-03-23T05:59:07;22.73;;;13.77;;
21356;SDS011;10836;53.068;18.234;2023-03-23T06:01:35;24.33;;;13.43;;
21356;SDS011;10836;53.068;18.234;2023-03-23T06:04:01;23.20;;;13.23;;
21356;SDS011;10836;53.068;18.234;2023-03-23T06:06:37;26.07;;;13.00;;
21356;SDS011;10836;53.068;18.234;2023-03-23T06:09:07;28.30;;;13.10;;
21356;SDS011;10836;53.068;18.234;2023-03-23T06:11:59;21.07;;;12.07;;
21356;SDS011;10836;53.068;18.234;2023-03-23T06:14:36;21.90;;;12.33;;
21356;SDS011;10836;53.068;18.234;2023-03-23T06:17:04;21.17;;;12.13;;
21356;SDS011;10836;53.068;18.234;2023-03-23T06:19:31;21.07;;;11.87;;
21356;SDS011;10836;53.068;18.234;2023-03-23T06:22:11;23.43;;;11.73;;
21356;SDS011;10836;53.068;18.234;2023-03-23T06:24:43;21.90;;;10.80;;
21356;SDS011;10836;53.068;18.234;2023-03-23T06:27:11;25.43;;;11.13;;
21356;SDS011;10836;53.068;18.234;2023-03-23T06:29:37;22.17;;;10.37;;
21356;SDS011;10836;53.068;18.234;2023-03-23T06:32:05;18.57;;;10.57;;
21356;SDS011;10836;53.068;18.234;2023-03-23T06:34:31;18.60;;;9.57;;
21356;SDS011;10836;53.068;18.234;2023-03-23T06:37:23;19.20;;;9.67;;
21356;SDS011;10836;53.068;18.234;2023-03-23T06:40:02;20.33;;;9.97;;
21356;SDS011;10836;53.068;18.234;2023-03-23T06:42:37;20.33;;;10.40;;
21356;SDS011;10836;53.068;18.234;2023-03-23T06:45:30;21.17;;;9.77;;
21356;SDS011;10836;53.068;18.234;2023-03-23T06:48:22;18.73;;;9.20;;
21356;SDS011;10836;53.068;18.234;2023-03-23T06:50:49;19.80;;;9.00;;
21356;SDS011;10836;53.068;18.234;2023-03-23T06:53:17;21.33;;;9.63;;
21356;SDS011;10836;53.068;18.234;2023-03-23T06:55:46;16.37;;;9.27;;
21356;SDS011;10836;53.068;18.234;2023-03-23T06:58:12;20.40;;;9.50;;
21356;SDS011;10836;53.068;18.234;2023-03-23T07:00:39;18.07;;;8.57;;
21356;SDS011;10836;53.068;18.234;2023-03-23T07:03:08;23.10;;;9.03;;
21356;SDS011;10836;53.068;18.234;2023-03-23T07:05:36;20.60;;;8.27;;
21356;SDS011;10836;53.068;18.234;2023-03-23T07:08:03;15.00;;;8.07;;
21356;SDS011;10836;53.068;18.234;2023-03-23T07:10:36;19.27;;;8.27;;
21356;SDS011;10836;53.068;18.234;2023-03-23T07:13:04;14.00;;;8.07;;
21356;SDS011;10836;53.068;18.234;2023-03-23T07:15:39;15.60;;;7.47;;
21356;SDS011;10836;53.068;18.234;2023-03-23T07:18:06;14.07;;;7.93;;
21356;SDS011;10836;53.068;18.234;2023-03-23T07:20:42;15.83;;;7.83;;
21356;SDS011;10836;53.068;18.234;2023-03-23T07:23:08;15.03;;;7.23;;
21356;SDS011;10836;53.068;18.234;2023-03-23T07:25:44;14.57;;;6.63;;
21356;SDS011;10836;53.068;18.234;2023-03-23T07:28:16;12.13;;;5.40;;
21356;SDS011;10836;53.068;18.234;2023-03-23T07:30:44;15.63;;;6.37;;
21356;SDS011;10836;53.068;18.234;2023-03-23T07:33:10;13.90;;;6.10;;
21356;SDS011;10836;53.068;18.234;2023-03-23T07:35:37;11.57;;;6.10;;
21356;SDS011;10836;53.068;18.234;2023-03-23T07:38:09;10.70;;;5.20;;
21356;SDS011;10836;53.068;18.234;2023-03-23T07:40:36;8.53;;;4.73;;
21356;SDS011;10836;53.068;18.234;2023-03-23T07:43:07;14.20;;;5.03;;
21356;SDS011;10836;53.068;18.234;2023-03-23T07:45:55;11.13;;;4.95;;
21356;SDS011;10836;53.068;18.234;2023-03-23T07:48:25;10.75;;;5.05;;
21356;SDS011;10836;53.068;18.234;2023-03-23T07:50:52;13.57;;;5.38;;
21356;SDS011;10836;53.068;18.234;2023-03-23T07:53:18;12.95;;;4.68;;
21356;SDS011;10836;53.068;18.234;2023-03-23T07:55:52;11.52;;;4.70;;
21356;SDS011;10836;53.068;18.234;2023-03-23T07:58:37;12.52;;;4.45;;
21356;SDS011;10836;53.068;18.234;2023-03-23T08:01:03;9.18;;;4.28;;
21356;SDS011;10836;53.068;18.234;2023-03-23T08:03:31;9.00;;;4.30;;
21356;SDS011;10836;53.068;18.234;2023-03-23T08:06:13;9.35;;;3.67;;
21356;SDS011;10836;53.068;18.234;2023-03-23T08:08:56;7.47;;;3.53;;
21356;SDS011;10836;53.068;18.234;2023-03-23T08:11:46;10.30;;;3.20;;
21356;SDS011;10836;53.068;18.234;2023-03-23T08:14:36;9.10;;;3.30;;
21356;SDS011;10836;53.068;18.234;2023-03-23T08:17:32;7.63;;;3.15;;
21356;SDS011;10836;53.068;18.234;2023-03-23T08:20:31;5.93;;;2.55;;
21356;SDS011;10836;53.068;18.234;2023-03-23T08:23:11;6.88;;;2.78;;
21356;SDS011;10836;53.068;18.234;2023-03-23T08:25:38;8.77;;;2.85;;
21356;SDS011;10836;53.068;18.234;2023-03-23T08:28:27;6.68;;;2.85;;
21356;SDS011;10836;53.068;18.234;2023-03-23T08:31:28;8.45;;;2.92;;
21356;SDS011;10836;53.068;18.234;2023-03-23T08:34:17;6.70;;;2.80;;
21356;SDS011;10836;53.068;18.234;2023-03-23T08:37:01;7.53;;;2.33;;
21356;SDS011;10836;53.068;18.234;2023-03-23T08:39:50;9.10;;;2.53;;
21356;SDS011;10836;53.068;18.234;2023-03-23T08:42:26;6.70;;;2.55;;
21356;SDS011;10836;53.068;18.234;2023-03-23T08:45:19;7.50;;;2.45;;
21356;SDS011;10836;53.068;18.234;2023-03-23T08:48:05;5.10;;;2.42;;
21356;SDS011;10836;53.068;18.234;2023-03-23T08:50:32;4.75;;;2.63;;
21356;SDS011;10836;53.068;18.234;2023-03-23T08:53:12;7.95;;;2.67;;
21356;SDS011;10836;53.068;18.234;2023-03-23T08:55:48;6.22;;;3.08;;
21356;SDS011;10836;53.068;18.234;2023-03-23T08:58:26;5.43;;;2.55;;
21356;SDS011;10836;53.068;18.234;2023-03-23T09:00:54;9.32;;;3.22;;
21356;SDS011;10836;53.068;18.234;2023-03-23T09:03:47;8.43;;;2.88;;
21356;SDS011;10836;53.068;18.234;2023-03-23T09:06:32;8.63;;;2.83;;
21356;SDS011;10836;53.068;18.234;2023-03-23T09:08:59;4.82;;;2.80;;
21356;SDS011;10836;53.068;18.234;2023-03-23T09:11:26;5.65;;;2.70;;
21356;SDS011;10836;53.068;18.234;2023-03-23T09:13:52;6.32;;;2.78;;
21356;SDS011;10836;53.068;18.234;2023-03-23T09:16:17;9.75;;;3.25;;
21356;SDS011;10836;53.068;18.234;2023-03-23T09:18:44;6.07;;;3.03;;
21356;SDS011;10836;53.068;18.234;2023-03-23T09:21:10;6.60;;;2.75;;
21356;SDS011;10836;53.068;18.234;2023-03-23T09:23:35;6.75;;;2.83;;
21356;SDS011;10836;53.068;18.234;2023-03-23T09:26:02;5.60;;;2.80;;
21356;SDS011;10836;53.068;18.234;2023-03-23T09:28:29;6.60;;;2.38;;
21356;SDS011;10836;53.068;18.234;2023-03-23T09:30:56;6.80;;;2.75;;
21356;SDS011;10836;53.068;18.234;2023-03-23T09:33:23;5.13;;;2.40;;
21356;SDS011;10836;53.068;18.234;2023-03-23T09:35:49;4.00;;;2.25;;
21356;SDS011;10836;53.068;18.234;2023-03-23T09:38:15;7.20;;;2.25;;
21356;SDS011;10836;53.068;18.234;2023-03-23T09:40:48;4.88;;;2.15;;
21356;SDS011;10836;53.068;18.234;2023-03-23T09:45:55;6.63;;;2.53;;
21356;SDS011;10836;53.068;18.234;2023-03-23T09:51:32;8.05;;;2.00;;
21356;SDS011;10836;53.068;18.234;2023-03-23T09:56:52;5.13;;;2.20;;
21356;SDS011;10836;53.068;18.234;2023-03-23T09:59:24;8.60;;;2.67;;
21356;SDS011;10836;53.068;18.234;2023-03-23T10:01:57;7.05;;;2.35;;
21356;SDS011;10836;53.068;18.234;2023-03-23T10:04:38;7.80;;;2.70;;
21356;SDS011;10836;53.068;18.234;2023-03-23T10:07:10;6.72;;;2.67;;
21356;SDS011;10836;53.068;18.234;2023-03-23T10:09:40;9.55;;;2.35;;
21356;SDS011;10836;53.068;18.234;2023-03-23T10:20:05;5.72;;;2.28;;
21356;SDS011;10836;53.068;18.234;2023-03-23T10:25:52;6.47;;;2.88;;
21356;SDS011;10836;53.068;18.234;2023-03-23T10:28:44;5.43;;;2.30;;
21356;SDS011;10836;53.068;18.234;2023-03-23T10:31:11;7.47;;;2.28;;
21356;SDS011;10836;53.068;18.234;2023-03-23T10:33:49;5.05;;;2.40;;
21356;SDS011;10836;53.068;18.234;2023-03-23T10:36:20;5.82;;;2.53;;
21356;SDS011;10836;53.068;18.234;2023-03-23T10:38:52;5.88;;;2.42;;
21356;SDS011;10836;53.068;18.234;2023-03-23T10:41:23;6.40;;;2.90;;
21356;SDS011;10836;53.068;18.234;2023-03-23T10:43:49;5.72;;;3.03;;
21356;SDS011;10836;53.068;18.234;2023-03-23T10:48:53;9.98;;;4.07;;
21356;SDS011;10836;53.068;18.234;2023-03-23T10:51:23;14.80;;;5.03;;
21356;SDS011;10836;53.068;18.234;2023-03-23T10:54:00;7.20;;;3.55;;
21356;SDS011;10836;53.068;18.234;2023-03-23T10:56:35;5.65;;;2.30;;
21356;SDS011;10836;53.068;18.234;2023-03-23T10:59:14;3.90;;;2.10;;
21356;SDS011;10836;53.068;18.234;2023-03-23T11:01:48;5.22;;;2.47;;
21356;SDS011;10836;53.068;18.234;2023-03-23T11:04:17;4.75;;;2.53;;
21356;SDS011;10836;53.068;18.234;2023-03-23T11:06:46;7.65;;;2.67;;
21356;SDS011;10836;53.068;18.234;2023-03-23T11:09:16;5.85;;;3.00;;
21356;SDS011;10836;53.068;18.234;2023-03-23T11:11:48;8.38;;;2.90;;
21356;SDS011;10836;53.068;18.234;2023-03-23T11:14:29;4.40;;;2.42;;
21356;SDS011;10836;53.068;18.234;2023-03-23T11:16:56;4.72;;;2.28;;
21356;SDS011;10836;53.068;18.234;2023-03-23T11:19:28;4.55;;;2.53;;
21356;SDS011;10836;53.068;18.234;2023-03-23T11:21:55;6.38;;;2.70;;
21356;SDS011;10836;53.068;18.234;2023-03-23T11:24:43;4.80;;;2.90;;
21356;SDS011;10836;53.068;18.234;2023-03-23T11:27:11;5.18;;;2.83;;
21356;SDS011;10836;53.068;18.234;2023-03-23T11:29:53;3.38;;;2.00;;
21356;SDS011;10836;53.068;18.234;2023-03-23T11:32:28;4.65;;;2.50;;
21356;SDS011;10836;53.068;18.234;2023-03-23T11:34:59;5.75;;;2.63;;
21356;SDS011;10836;53.068;18.234;2023-03-23T11:37:40;7.93;;;2.58;;
21356;SDS011;10836;53.068;18.234;2023-03-23T11:42:42;4.97;;;2.28;;
21356;SDS011;10836;53.068;18.234;2023-03-23T11:47:50;6.43;;;2.58;;
21356;SDS011;10836;53.068;18.234;2023-03-23T11:50:30;5.25;;;2.38;;
21356;SDS011;10836;53.068;18.234;2023-03-23T11:58:37;6.03;;;2.17;;
21356;SDS011;10836;53.068;18.234;2023-03-23T12:01:12;5.45;;;1.77;;
21356;SDS011;10836;53.068;18.234;2023-03-23T12:06:56;3.80;;;2.00;;
21356;SDS011;10836;53.068;18.234;2023-03-23T12:12:18;5.40;;;1.77;;
21356;SDS011;10836;53.068;18.234;2023-03-23T12:17:47;4.95;;;1.92;;
21356;SDS011;10836;53.068;18.234;2023-03-23T12:20:37;5.38;;;1.92;;
21356;SDS011;10836;53.068;18.234;2023-03-23T12:26:00;5.93;;;2.17;;
21356;SDS011;10836;53.068;18.234;2023-03-23T12:28:45;3.78;;;2.00;;
21356;SDS011;10836;53.068;18.234;2023-03-23T12:31:17;5.00;;;1.50;;
21356;SDS011;10836;53.068;18.234;2023-03-23T12:34:04;3.15;;;1.80;;
21356;SDS011;10836;53.068;18.234;2023-03-23T12:39:48;2.70;;;1.42;;
21356;SDS011;10836;53.068;18.234;2023-03-23T12:48:28;5.70;;;2.30;;
21356;SDS011;10836;53.068;18.234;2023-03-23T12:51:04;4.50;;;2.08;;
21356;SDS011;10836;53.068;18.234;2023-03-23T12:56:20;4.78;;;2.45;;
21356;SDS011;10836;53.068;18.234;2023-03-23T12:58:51;4.93;;;2.40;;
21356;SDS011;10836;53.068;18.234;2023-03-23T13:01:30;10.50;;;2.80;;
21356;SDS011;10836;53.068;18.234;2023-03-23T13:04:09;5.90;;;2.42;;
21356;SDS011;10836;53.068;18.234;2023-03-23T13:06:40;5.60;;;2.23;;
21356;SDS011;10836;53.068;18.234;2023-03-23T13:09:24;3.33;;;1.90;;
21356;SDS011;10836;53.068;18.234;2023-03-23T13:11:56;3.10;;;1.92;;
21356;SDS011;10836;53.068;18.234;2023-03-23T13:22:55;5.10;;;2.05;;
21356;SDS011;10836;53.068;18.234;2023-03-23T13:28:00;4.18;;;2.22;;
21356;SDS011;10836;53.068;18.234;2023-03-23T13:30:27;6.03;;;2.30;;
21356;SDS011;10836;53.068;18.234;2023-03-23T13:33:06;4.45;;;2.13;;
21356;SDS011;10836;53.068;18.234;2023-03-23T13:35:37;3.83;;;2.17;;
21356;SDS011;10836;53.068;18.234;2023-03-23T13:38:18;3.22;;;1.80;;
21356;SDS011;10836;53.068;18.234;2023-03-23T13:40:48;5.43;;;1.92;;
21356;SDS011;10836;53.068;18.234;2023-03-23T13:43:24;5.00;;;2.75;;
21356;SDS011;10836;53.068;18.234;2023-03-23T13:45:52;5.32;;;2.42;;
21356;SDS011;10836;53.068;18.234;2023-03-23T13:48:23;4.63;;;2.67;;
21356;SDS011;10836;53.068;18.234;2023-03-23T13:50:52;7.75;;;2.42;;
21356;SDS011;10836;53.068;18.234;2023-03-23T13:53:25;7.75;;;2.80;;
21356;SDS011;10836;53.068;18.234;2023-03-23T13:56:05;5.28;;;2.35;;
21356;SDS011;10836;53.068;18.234;2023-03-23T13:58:52;4.18;;;2.40;;
21356;SDS011;10836;53.068;18.234;2023-03-23T14:01:32;5.05;;;2.25;;
21356;SDS011;10836;53.068;18.234;2023-03-23T14:04:02;5.85;;;2.40;;
21356;SDS011;10836;53.068;18.234;2023-03-23T14:06:34;4.13;;;2.35;;
21356;SDS011;10836;53.068;18.234;2023-03-23T14:09:26;5.45;;;2.00;;
21356;SDS011;10836;53.068;18.234;2023-03-23T14:11:57;4.25;;;2.15;;
21356;SDS011;10836;53.068;18.234;2023-03-23T14:14:32;3.78;;;2.33;;
21356;SDS011;10836;53.068;18.234;2023-03-23T14:17:14;6.63;;;2.15;;
21356;SDS011;10836;53.068;18.234;2023-03-23T14:19:46;9.77;;;2.80;;
21356;SDS011;10836;53.068;18.234;2023-03-23T14:22:23;5.40;;;2.40;;
21356;SDS011;10836;53.068;18.234;2023-03-23T14:24:58;5.22;;;2.00;;
21356;SDS011;10836;53.068;18.234;2023-03-23T14:27:26;3.60;;;2.20;;
21356;SDS011;10836;53.068;18.234;2023-03-23T14:29:59;7.43;;;2.33;;
21356;SDS011;10836;53.068;18.234;2023-03-23T14:32:27;3.72;;;2.15;;
21356;SDS011;10836;53.068;18.234;2023-03-23T14:34:55;3.30;;;1.85;;
21356;SDS011;10836;53.068;18.234;2023-03-23T14:37:22;3.47;;;2.25;;
21356;SDS011;10836;53.068;18.234;2023-03-23T14:39:49;4.20;;;2.03;;
21356;SDS011;10836;53.068;18.234;2023-03-23T14:42:20;4.18;;;1.90;;
21356;SDS011;10836;53.068;18.234;2023-03-23T14:44:52;4.45;;;2.05;;
21356;SDS011;10836;53.068;18.234;2023-03-23T14:47:26;3.88;;;2.20;;
21356;SDS011;10836;53.068;18.234;2023-03-23T14:49:57;7.00;;;2.30;;
21356;SDS011;10836;53.068;18.234;2023-03-23T14:52:25;5.78;;;2.10;;
21356;SDS011;10836;53.068;18.234;2023-03-23T14:54:53;4.53;;;2.08;;
21356;SDS011;10836;53.068;18.234;2023-03-23T14:59:49;4.03;;;2.00;;
21356;SDS011;10836;53.068;18.234;2023-03-23T15:02:23;5.80;;;2.17;;
21356;SDS011;10836;53.068;18.234;2023-03-23T15:04:57;4.20;;;1.92;;
21356;SDS011;10836;53.068;18.234;2023-03-23T15:07:33;10.20;;;4.32;;
21356;SDS011;10836;53.068;18.234;2023-03-23T15:10:01;7.32;;;2.88;;
21356;SDS011;10836;53.068;18.234;2023-03-23T15:12:31;7.45;;;3.22;;
21356;SDS011;10836;53.068;18.234;2023-03-23T15:14:58;7.97;;;4.60;;
21356;SDS011;10836;53.068;18.234;2023-03-23T15:17:28;15.05;;;6.88;;
21356;SDS011;10836;53.068;18.234;2023-03-23T15:19:56;26.13;;;9.25;;
21356;SDS011;10836;53.068;18.234;2023-03-23T15:22:25;36.28;;;16.17;;
21356;SDS011;10836;53.068;18.234;2023-03-23T15:25:38;7.15;;;3.33;;
21356;SDS011;10836;53.068;18.234;2023-03-23T15:27:54;7.82;;;3.47;;
21356;SDS011;10836;53.068;18.234;2023-03-23T15:30:35;7.22;;;2.78;;
21356;SDS011;10836;53.068;18.234;2023-03-23T15:33:12;9.30;;;2.67;;
21356;SDS011;10836;53.068;18.234;2023-03-23T15:35:40;11.82;;;6.03;;
21356;SDS011;10836;53.068;18.234;2023-03-23T15:40:48;10.90;;;7.05;;
21356;SDS011;10836;53.068;18.234;2023-03-23T15:48:19;5.32;;;2.30;;
21356;SDS011;10836;53.068;18.234;2023-03-23T15:50:46;5.82;;;2.53;;
21356;SDS011;10836;53.068;18.234;2023-03-23T15:53:27;8.55;;;3.00;;
21356;SDS011;10836;53.068;18.234;2023-03-23T15:55:53;7.10;;;4.30;;
21356;SDS011;10836;53.068;18.234;2023-03-23T15:58:20;10.88;;;5.85;;
21356;SDS011;10836;53.068;18.234;2023-03-23T16:00:48;14.43;;;6.82;;
21356;SDS011;10836;53.068;18.234;2023-03-23T16:03:22;12.82;;;6.70;;
21356;SDS011;10836;53.068;18.234;2023-03-23T16:05:53;5.57;;;3.42;;
21356;SDS011;10836;53.068;18.234;2023-03-23T16:08:21;6.00;;;2.97;;
21356;SDS011;10836;53.068;18.234;2023-03-23T16:10:48;7.28;;;2.72;;
21356;SDS011;10836;53.068;18.234;2023-03-23T16:13:16;4.53;;;2.47;;
21356;SDS011;10836;53.068;18.234;2023-03-23T16:15:43;6.05;;;3.15;;
21356;SDS011;10836;53.068;18.234;2023-03-23T16:18:15;6.90;;;2.90;;
21356;SDS011;10836;53.068;18.234;2023-03-23T16:20:45;6.00;;;2.58;;
21356;SDS011;10836;53.068;18.234;2023-03-23T16:23:13;7.65;;;2.65;;
21356;SDS011;10836;53.068;18.234;2023-03-23T16:25:41;6.35;;;2.72;;
21356;SDS011;10836;53.068;18.234;2023-03-23T16:28:11;7.03;;;2.80;;
21356;SDS011;10836;53.068;18.234;2023-03-23T16:30:39;7.68;;;3.40;;
21356;SDS011;10836;53.068;18.234;2023-03-23T16:33:07;5.07;;;2.53;;
21356;SDS011;10836;53.068;18.234;2023-03-23T16:35:35;5.68;;;2.53;;